Time;durP1;ratioP1;P1;durP2;ratioP2;P2;SDS_P1;SDS_P2;PMS_P1;PMS_P2;Temp;Humidity;BMP_temperature;BMP_pressure;BME280_temperature;BME280_humidity;BME280_pressure;Samples;Min_cycle;Max_cycle;Signal;HPM_P1;HPM_P2
2023/03/07 06:23:56;;;;;;;;;;;;;;;6.24;54.69;95717.50;4175771;28;11396;-69
2023/03/07 06:25:59;;;;;;;;;;;;;;;6.56;54.26;95712.59;4181381;28;5903;-68
2023/03/07 06:28:02;;;;;;;;;;;;;;;6.79;54.11;95715.75;4165472;28;5770;-69
2023/03/07 06:30:07;;;;;;;;;;;;;;;6.95;53.66;95710.16;4163362;28;5859;-69
2023/03/07 06:32:10;;;;;;;;;;;;;;;7.10;53.73;95706.56;4166620;28;5937;-70
2023/03/07 06:34:13;;;;;;;;;;;;;;;7.22;53.38;95699.72;4157658;28;5980;-69
2023/03/07 06:36:18;;;;;;;;;;;;;;;7.33;53.50;95693.88;4164537;28;6751;-69
2023/03/07 06:38:21;;;;;;;;;;;;;;;7.46;53.12;95699.16;4159221;28;5954;-69
2023/03/07 06:40:25;;;;;;;;;;;;;;;7.54;53.12;95696.34;4159146;28;5770;-70
2023/03/07 06:42:28;;;;;;;;;;;;;;;7.63;52.97;95693.53;4152891;28;5855;-70
2023/03/07 06:44:31;;;;;;;;;;;;;;;7.70;52.73;95692.53;4162483;28;5759;-70
2023/03/07 06:46:34;;;;;;;;;;;;;;;7.75;52.96;95684.81;4160520;28;5774;-70
2023/03/07 06:48:37;;;;;;;;;;;;;;;7.79;52.76;95686.03;4159048;28;5775;-70
2023/03/07 06:50:40;;;;;;;;;;;;;;;7.87;52.97;95698.19;4153685;28;5791;-70
2023/03/07 06:52:42;;;;;;;;;;;;;;;7.89;52.69;95686.44;4164008;28;5858;-70
2023/03/07 06:54:45;;;;;;;;;;;;;;;7.89;52.87;95696.16;4163664;28;5755;-70
2023/03/07 06:56:51;;;;;;;;;;;;;;;7.89;52.76;95698.78;4157623;28;5755;-69
2023/03/07 06:58:54;;;;;;;;;;;;;;;7.93;52.76;95696.56;4156871;28;5843;-70
2023/03/07 07:00:57;;;;;;;;;;;;;;;7.93;52.79;95688.66;4160146;28;5743;-69
2023/03/07 07:03:00;;;;;;;;;;;;;;;7.92;52.75;95687.84;4164111;28;6110;-70
2023/03/07 07:05:04;;;;;;;;;;;;;;;7.95;52.49;95691.91;4163544;28;5716;-70
2023/03/07 07:07:07;;;;;;;;;;;;;;;8.01;52.51;95685.81;4162956;28;5851;-69
2023/03/07 07:09:13;;;;;;;;;;;;;;;8.06;52.50;95689.47;4158276;28;5813;-69
2023/03/07 07:11:16;;;;;;;;;;;;;;;8.09;52.53;95696.16;4160231;28;5750;-69
2023/03/07 07:13:20;;;;;;;;;;;;;;;8.10;52.33;95693.31;4163057;28;6257;-70
2023/03/07 07:15:23;;;;;;;;;;;;;;;8.14;52.40;95693.69;4159809;28;5858;-70
2023/03/07 07:17:26;;;;;;;;;;;;;;;8.16;52.14;95696.97;4161581;28;5747;-69
2023/03/07 07:19:30;;;;;;;;;;;;;;;8.20;51.93;95702.63;4163326;28;5826;-69
2023/03/07 07:21:33;;;;;;;;;;;;;;;8.23;52.07;95707.47;4164228;28;5782;-69
2023/03/07 07:23:36;;;;;;;;;;;;;;;8.21;52.03;95706.88;4170894;28;5767;-70
2023/03/07 07:25:39;;;;;;;;;;;;;;;8.21;51.93;95705.03;4151161;28;5752;-69
2023/03/07 07:27:42;;;;;;;;;;;;;;;8.23;51.97;95699.56;4151681;28;5804;-69
2023/03/07 07:29:46;;;;;;;;;;;;;;;8.26;51.67;95696.53;4169111;28;5790;-70
2023/03/07 07:31:49;;;;;;;;;;;;;;;8.30;51.54;95698.56;4167374;28;5833;-69
2023/03/07 07:33:52;;;;;;;;;;;;;;;8.30;51.61;95698.56;4166190;28;5786;-70
2023/03/07 07:35:55;;;;;;;;;;;;;;;8.30;51.58;95700.38;4165243;28;5908;-70
2023/03/07 07:37:58;;;;;;;;;;;;;;;8.32;51.52;95695.72;4162688;28;5893;-70
2023/03/07 07:40:01;;;;;;;;;;;;;;;8.27;51.57;95695.50;4167878;28;5790;-70
2023/03/07 07:42:05;;;;;;;;;;;;;;;8.25;51.54;95694.91;4158871;28;5732;-69
2023/03/07 07:44:08;;;;;;;;;;;;;;;8.29;51.58;95701.41;4168515;28;5794;-69
2023/03/07 07:46:12;;;;;;;;;;;;;;;8.35;51.50;95708.50;4168426;28;5885;-71
2023/03/07 07:48:16;;;;;;;;;;;;;;;8.38;51.29;95708.91;4167521;28;5853;-70
2023/03/07 07:50:21;;;;;;;;;;;;;;;8.40;51.24;95719.25;4167848;28;5134;-69
2023/03/07 07:52:24;;;;;;;;;;;;;;;8.43;51.03;95716.19;4168536;28;5769;-70
2023/03/07 07:54:27;;;;;;;;;;;;;;;8.46;51.15;95713.13;4168398;28;5806;-70
2023/03/07 07:56:30;;;;;;;;;;;;;;;8.48;50.70;95711.09;4168728;28;5923;-70
2023/03/07 07:58:33;;;;;;;;;;;;;;;8.49;50.69;95707.44;4167673;28;5956;-70
2023/03/07 08:00:36;;;;;;;;;;;;;;;8.47;50.73;95709.47;4167931;28;5788;-70
2023/03/07 08:02:42;;;;;;;;;;;;;;;8.45;50.81;95700.97;4161450;28;5778;-70
2023/03/07 08:04:46;;;;;;;;;;;;;;;8.42;50.77;95707.47;4162581;28;6540;-70
2023/03/07 08:06:49;;;;;;;;;;;;;;;8.41;50.70;95697.16;4165667;28;5895;-70
2023/03/07 08:08:52;;;;;;;;;;;;;;;8.42;50.45;95704.03;4168465;28;5961;-70
2023/03/07 08:10:55;;;;;;;;;;;;;;;8.44;50.51;95691.47;4168823;28;5883;-70
2023/03/07 08:12:59;;;;;;;;;;;;;;;8.42;50.55;95691.69;4167106;28;6238;-70
2023/03/07 08:15:02;;;;;;;;;;;;;;;8.42;50.54;95688.22;4168815;28;5853;-70
2023/03/07 08:17:05;;;;;;;;;;;;;;;8.48;50.47;95695.28;4168424;28;5852;-70
2023/03/07 08:19:10;;;;;;;;;;;;;;;8.52;50.38;95690.44;4167370;28;5829;-70
2023/03/07 08:21:13;;;;;;;;;;;;;;;8.53;50.04;95682.31;4148436;28;6782;-70
2023/03/07 08:23:16;;;;;;;;;;;;;;;8.54;50.29;95693.69;4167916;28;6514;-71
2023/03/07 08:25:21;;;;;;;;;;;;;;;8.50;50.07;95687.22;4168831;28;5864;-70
2023/03/07 08:27:24;;;;;;;;;;;;;;;8.50;50.24;95689.84;4167253;28;5890;-70
2023/03/07 08:29:28;;;;;;;;;;;;;;;8.53;50.22;95692.88;4166731;28;6521;-70
2023/03/07 08:31:31;;;;;;;;;;;;;;;8.51;49.84;95680.94;4166945;28;5833;-70
2023/03/07 08:33:34;;;;;;;;;;;;;;;8.57;50.09;95683.53;4167647;28;5806;-70
2023/03/07 08:35:39;;;;;;;;;;;;;;;8.61;49.84;95687.38;4167397;28;5855;-70
2023/03/07 08:37:43;;;;;;;;;;;;;;;8.66;49.91;95679.66;4165998;28;5870;-70
2023/03/07 08:39:46;;;;;;;;;;;;;;;8.73;49.64;95677.81;4164057;28;5901;-70
2023/03/07 08:41:49;;;;;;;;;;;;;;;8.78;49.76;95690.34;4166308;28;5869;-70
2023/03/07 08:43:53;;;;;;;;;;;;;;;8.80;49.64;95683.03;4167987;28;5762;-70
2023/03/07 08:45:56;;;;;;;;;;;;;;;8.77;49.52;95678.19;4166078;28;5778;-70
2023/03/07 08:47:59;;;;;;;;;;;;;;;8.82;49.30;95674.91;4168220;28;6000;-70
2023/03/07 08:50:02;;;;;;;;;;;;;;;8.84;49.25;95667.63;4168172;28;5786;-70
2023/03/07 08:52:06;;;;;;;;;;;;;;;8.85;49.31;95664.78;4144420;28;5673;-70
2023/03/07 08:54:10;;;;;;;;;;;;;;;8.88;49.31;95660.91;4161185;28;5777;-70
2023/03/07 08:56:14;;;;;;;;;;;;;;;8.92;49.36;95659.47;4164359;28;5897;-70
2023/03/07 08:58:17;;;;;;;;;;;;;;;8.93;49.10;95655.81;4161861;28;5869;-70
2023/03/07 09:00:20;;;;;;;;;;;;;;;8.99;49.03;95652.34;4168142;28;5967;-70
2023/03/07 09:02:23;;;;;;;;;;;;;;;8.99;49.16;95647.88;4153859;28;5807;-70
2023/03/07 09:04:26;;;;;;;;;;;;;;;8.98;49.10;95645.47;4164379;28;5774;-71
2023/03/07 09:06:29;;;;;;;;;;;;;;;8.98;48.95;95645.47;4167747;28;5778;-68
2023/03/07 09:08:33;;;;;;;;;;;;;;;8.99;48.93;95644.44;4167646;28;5790;-70
2023/03/07 09:10:37;;;;;;;;;;;;;;;9.00;49.12;95643.41;4167124;28;5895;-69
2023/03/07 09:12:39;;;;;;;;;;;;;;;9.03;49.14;95637.72;4154704;28;5902;-70
2023/03/07 09:14:42;;;;;;;;;;;;;;;9.02;48.85;95644.00;4165020;28;5884;-70
2023/03/07 09:16:45;;;;;;;;;;;;;;;9.01;49.17;95630.03;4152433;28;5887;-70
2023/03/07 09:18:48;;;;;;;;;;;;;;;8.98;49.18;95624.38;4151133;28;6974;-70
2023/03/07 09:20:51;;;;;;;;;;;;;;;9.01;49.15;95626.56;4167145;28;5933;-70
2023/03/07 09:22:54;;;;;;;;;;;;;;;9.03;48.96;95625.34;4168081;28;5782;-69
2023/03/07 09:24:59;;;;;;;;;;;;;;;9.04;49.13;95623.50;4166368;28;5821;-70
2023/03/07 09:27:02;;;;;;;;;;;;;;;9.07;49.12;95611.75;4167032;28;5798;-69
2023/03/07 09:29:05;;;;;;;;;;;;;;;9.12;49.17;95611.91;4160589;28;5782;-69
2023/03/07 09:31:13;;;;;;;;;;;;;;;9.16;48.83;95607.81;4167683;28;5782;-69
2023/03/07 09:33:16;;;;;;;;;;;;;;;9.18;48.96;95611.09;4166713;28;5779;-70
2023/03/07 09:35:20;;;;;;;;;;;;;;;9.15;48.90;95604.38;4167707;28;5887;-70
2023/03/07 09:37:23;;;;;;;;;;;;;;;9.17;49.04;95602.34;4166465;28;5793;-70
2023/03/07 09:39:26;;;;;;;;;;;;;;;9.17;49.04;95604.16;4167122;28;5740;-70
2023/03/07 09:41:55;;;;;;;;;;;;;;;9.15;49.05;95599.09;4166310;28;5782;-69
2023/03/07 09:44:10;;;;;;;;;;;;;;;9.19;48.79;95597.69;4151024;28;6481;-69
2023/03/07 09:46:25;;;;;;;;;;;;;;;9.22;48.69;95599.88;4162494;28;5896;-69
2023/03/07 09:49:04;;;;;;;;;;;;;;;9.25;48.87;95586.25;4166501;28;5802;-69
2023/03/07 09:51:15;;;;;;;;;;;;;;;9.30;48.76;95581.16;4094724;28;5936;-69
2023/03/07 09:53:24;;;;;;;;;;;;;;;9.36;48.69;95581.31;4101029;28;5911;-69
2023/03/07 09:55:29;;;;;;;;;;;;;;;9.39;48.47;95575.59;4096025;28;5927;-70
2023/03/07 09:57:39;;;;;;;;;;;;;;;9.38;48.24;95579.28;4091889;28;5984;-69
2023/03/07 09:59:46;;;;;;;;;;;;;;;9.40;48.38;95571.94;4099980;28;6095;-69
2023/03/07 10:01:53;;;;;;;;;;;;;;;9.41;48.39;95584.94;4100551;28;5895;-70
2023/03/07 10:04:01;;;;;;;;;;;;;;;9.42;48.54;95572.56;4093842;28;5921;-70
2023/03/07 10:06:13;;;;;;;;;;;;;;;9.43;48.62;95576.81;4100949;28;5900;-69
2023/03/07 10:08:20;;;;;;;;;;;;;;;9.48;48.23;95575.13;4098914;28;6689;-70
2023/03/07 10:10:27;;;;;;;;;;;;;;;9.51;48.33;95576.53;4099638;28;5991;-70
2023/03/07 10:12:55;;;;;;;;;;;;;;;9.52;48.23;95580.81;4100517;28;5891;-70
2023/03/07 10:15:19;;;;;;;;;;;;;;;9.53;48.13;95579.78;4097787;28;5936;-70
2023/03/07 10:17:34;;;;;;;;;;;;;;;9.52;48.31;95573.69;4094138;28;6035;-70
2023/03/07 10:19:44;;;;;;;;;;;;;;;9.53;48.28;95571.88;4090218;29;6055;-70
2023/03/07 10:21:55;;;;;;;;;;;;;;;9.57;48.23;95562.47;4098209;28;5896;-70
2023/03/07 10:24:23;;;;;;;;;;;;;;;9.60;48.23;95562.84;4093836;28;5931;-70
2023/03/07 10:26:32;;;;;;;;;;;;;;;9.67;47.95;95562.78;4105638;28;5799;-71
2023/03/07 10:28:39;;;;;;;;;;;;;;;9.67;48.05;95562.78;4154736;28;5913;-70
2023/03/07 10:30:45;;;;;;;;;;;;;;;9.65;47.90;95566.69;4164335;28;5787;-70
2023/03/07 10:32:52;;;;;;;;;;;;;;;9.66;47.79;95565.66;4166494;28;5897;-70
2023/03/07 10:35:00;;;;;;;;;;;;;;;9.70;47.94;95569.47;4160824;28;5088;-73
2023/03/07 10:37:14;;;;;;;;;;;;;;;9.72;47.86;95565.56;4159833;28;7758;-70
2023/03/07 10:39:26;;;;;;;;;;;;;;;9.73;47.78;95567.19;4160412;28;5103;-69
2023/03/07 10:41:30;;;;;;;;;;;;;;;9.75;47.76;95562.53;4166243;28;5978;-69
2023/03/07 10:43:34;;;;;;;;;;;;;;;9.77;47.92;95567.59;4161138;28;6967;-70
2023/03/07 10:45:40;;;;;;;;;;;;;;;9.80;47.84;95561.84;4166872;28;5107;-71
2023/03/07 10:47:43;;;;;;;;;;;;;;;9.82;47.72;95550.06;4166899;28;5936;-70
2023/03/07 10:49:47;;;;;;;;;;;;;;;9.79;47.67;95553.13;4158661;28;5771;-72
2023/03/07 10:51:57;;;;;;;;;;;;;;;9.78;47.84;95548.88;4165902;28;5778;-70
2023/03/07 10:54:02;;;;;;;;;;;;;;;9.83;47.43;95537.66;4165465;28;6460;-72
2023/03/07 10:56:11;;;;;;;;;;;;;;;9.84;47.29;95526.88;4166551;28;5775;-70
2023/03/07 10:58:19;;;;;;;;;;;;;;;9.83;47.22;95525.28;4166780;28;5768;-69
2023/03/07 11:00:23;;;;;;;;;;;;;;;9.77;47.35;95526.16;4169920;28;5829;-70
2023/03/07 11:02:34;;;;;;;;;;;;;;;9.77;47.11;95526.16;4169840;28;5753;-70
2023/03/07 11:04:45;;;;;;;;;;;;;;;9.77;47.09;95535.91;4170149;28;5737;-69
2023/03/07 11:06:53;;;;;;;;;;;;;;;9.81;47.18;95526.53;4169797;28;5753;-70
2023/03/07 11:08:56;;;;;;;;;;;;;;;9.85;46.90;95517.97;4158873;28;6006;-70
2023/03/07 11:11:00;;;;;;;;;;;;;;;9.91;47.17;95511.78;4168976;28;6056;-70
2023/03/07 11:13:13;;;;;;;;;;;;;;;9.98;46.82;95517.00;4168769;28;5119;-70
2023/03/07 11:15:22;;;;;;;;;;;;;;;9.98;46.77;95511.72;4156205;28;5779;-70
2023/03/07 11:17:29;;;;;;;;;;;;;;;10.03;46.93;95505.78;4169561;28;5107;-70
2023/03/07 11:19:40;;;;;;;;;;;;;;;10.06;46.59;95502.69;4167083;28;7780;-70
2023/03/07 11:21:53;;;;;;;;;;;;;;;10.10;46.81;95509.97;4168144;28;5874;-70
2023/03/07 11:23:59;;;;;;;;;;;;;;;10.10;46.45;95499.41;4169469;28;5785;-70
2023/03/07 11:26:16;;;;;;;;;;;;;;;10.11;46.50;95506.28;4165016;28;6279;-70
2023/03/07 11:28:28;;;;;;;;;;;;;;;10.12;46.14;95501.81;4169404;28;5855;-70
2023/03/07 11:30:42;;;;;;;;;;;;;;;10.13;46.38;95484.94;4169510;28;5793;-70
2023/03/07 11:32:51;;;;;;;;;;;;;;;10.16;45.99;95487.13;4168092;28;5837;-68
2023/03/07 11:34:59;;;;;;;;;;;;;;;10.19;46.02;95481.41;4168512;28;5789;-70
2023/03/07 11:37:23;;;;;;;;;;;;;;;10.21;46.11;95484.66;4168777;28;5888;-70
2023/03/07 11:39:34;;;;;;;;;;;;;;;10.23;46.12;95476.53;4167712;28;5782;-70
2023/03/07 11:41:38;;;;;;;;;;;;;;;10.19;45.92;95471.66;4168004;28;5786;-74
2023/03/07 11:43:54;;;;;;;;;;;;;;;10.26;45.84;95473.44;4169133;28;5432;-73
2023/03/07 11:46:03;;;;;;;;;;;;;;;10.30;45.90;95472.75;4168188;28;7460;-71
2023/03/07 11:48:19;;;;;;;;;;;;;;;10.35;45.88;95469.47;4160322;28;5774;-72
2023/03/07 11:50:26;;;;;;;;;;;;;;;10.37;45.43;95457.63;4167541;28;5778;-74
2023/03/07 11:52:48;;;;;;;;;;;;;;;10.42;45.52;95456.97;4169234;28;5877;-73
2023/03/07 11:55:02;;;;;;;;;;;;;;;10.43;45.66;95459.38;4169315;28;5864;-73
2023/03/07 11:57:17;;;;;;;;;;;;;;;10.40;45.38;95453.72;4162682;28;5870;-73
2023/03/07 11:59:41;;;;;;;;;;;;;;;10.44;45.37;95452.28;4169209;28;5790;-73
2023/03/07 12:01:53;;;;;;;;;;;;;;;10.47;45.28;95447.34;4169324;28;5103;-73
2023/03/07 12:04:40;;;;;;;;;;;;;;;10.56;45.05;95449.66;4152981;28;5798;-73
2023/03/07 12:06:57;;;;;;;;;;;;;;;10.61;45.16;95453.22;4118243;28;5809;-74
2023/03/07 12:09:20;;;;;;;;;;;;;;;10.68;44.88;95453.94;4109580;28;5074;-73
2023/03/07 12:11:36;;;;;;;;;;;;;;;10.75;44.72;95444.06;4113186;28;5930;-73
2023/03/07 12:13:53;;;;;;;;;;;;;;;10.83;44.84;95440.28;4115414;28;5777;-73
2023/03/07 12:16:06;;;;;;;;;;;;;;;10.86;44.64;95439.81;4107421;28;5904;-73
2023/03/07 12:18:30;;;;;;;;;;;;;;;10.84;44.64;95441.91;4111995;28;6587;-72
2023/03/07 12:20:41;;;;;;;;;;;;;;;10.84;44.74;95425.22;4117780;28;5904;-73
2023/03/07 12:22:56;;;;;;;;;;;;;;;10.84;44.51;95412.00;4116153;28;5766;-74
2023/03/07 12:25:23;;;;;;;;;;;;;;;10.85;44.81;95411.78;4110213;28;5837;-73
2023/03/07 12:27:31;;;;;;;;;;;;;;;10.87;44.32;95404.44;4119331;28;5757;-73
2023/03/07 12:29:38;;;;;;;;;;;;;;;10.88;44.32;95395.50;4114168;28;5730;-74
2023/03/07 12:31:45;;;;;;;;;;;;;;;10.89;44.77;95397.09;4102071;28;5741;-73
2023/03/07 12:34:01;;;;;;;;;;;;;;;10.94;44.35;95389.25;4114677;28;5828;-73
2023/03/07 12:36:09;;;;;;;;;;;;;;;10.98;44.70;95390.41;4103593;28;5828;-73
2023/03/07 12:38:26;;;;;;;;;;;;;;;11.04;44.37;95367.53;4118183;28;5107;-74
2023/03/07 12:40:38;;;;;;;;;;;;;;;11.06;44.56;95365.47;4116171;28;5845;-74
2023/03/07 12:42:49;;;;;;;;;;;;;;;11.09;44.33;95357.88;4137082;28;5837;-74
2023/03/07 12:44:58;;;;;;;;;;;;;;;11.16;44.00;95359.59;4167493;28;5986;-74
2023/03/07 12:47:09;;;;;;;;;;;;;;;11.16;44.29;95364.91;4164800;28;5724;-74
2023/03/07 12:49:21;;;;;;;;;;;;;;;11.13;44.00;95360.88;4166679;28;5782;-74
2023/03/07 12:51:31;;;;;;;;;;;;;;;11.16;43.88;95373.63;4165853;28;5795;-74
2023/03/07 12:53:37;;;;;;;;;;;;;;;11.18;43.91;95370.75;4167043;28;5832;-75
2023/03/07 12:55:45;;;;;;;;;;;;;;;11.21;43.81;95367.63;4166681;28;5583;-72
2023/03/07 12:57:59;;;;;;;;;;;;;;;11.23;43.69;95371.69;4168169;28;7757;-73
2023/03/07 13:00:07;;;;;;;;;;;;;;;11.29;43.58;95383.16;4167107;28;5806;-74
2023/03/07 13:02:15;;;;;;;;;;;;;;;11.34;43.41;95383.28;4168303;28;5873;-73
2023/03/07 13:04:22;;;;;;;;;;;;;;;11.33;43.44;95379.84;4163989;28;5794;-73
2023/03/07 13:06:26;;;;;;;;;;;;;;;11.36;43.57;95375.91;4166114;28;6726;-74
2023/03/07 13:08:30;;;;;;;;;;;;;;;11.41;42.83;95376.00;4163800;28;5978;-74
2023/03/07 13:10:35;;;;;;;;;;;;;;;11.42;43.07;95364.38;4164957;28;5793;-74
2023/03/07 13:12:39;;;;;;;;;;;;;;;11.44;42.91;95374.75;4167656;28;6472;-74
2023/03/07 13:14:44;;;;;;;;;;;;;;;11.43;43.30;95370.47;4167368;28;5853;-73
2023/03/07 13:16:48;;;;;;;;;;;;;;;11.47;43.11;95367.16;4167779;28;5891;-74
2023/03/07 13:18:51;;;;;;;;;;;;;;;11.47;42.98;95363.72;4166824;28;7328;-74
2023/03/07 13:21:29;;;;;;;;;;;;;;;11.49;42.97;95362.44;4166774;28;6468;-74
2023/03/07 13:23:32;;;;;;;;;;;;;;;11.52;42.53;95355.88;4167468;28;6167;-73
2023/03/07 13:26:03;;;;;;;;;;;;;;;11.49;42.76;95354.50;4167748;28;6775;-73
2023/03/07 13:28:46;;;;;;;;;;;;;;;11.50;42.65;95377.28;4167774;28;5777;-73
2023/03/07 13:31:13;;;;;;;;;;;;;;;11.51;42.57;95363.00;4165514;28;5745;-74
2023/03/07 13:33:26;;;;;;;;;;;;;;;11.49;42.39;95365.06;4162422;28;5912;-73
2023/03/07 13:35:53;;;;;;;;;;;;;;;11.51;42.59;95367.50;4166973;28;5778;-73
2023/03/07 13:37:57;;;;;;;;;;;;;;;11.52;42.49;95364.59;4152205;28;5869;-74
2023/03/07 13:40:05;;;;;;;;;;;;;;;11.57;42.39;95370.03;4167526;28;5804;-74
2023/03/07 13:42:47;;;;;;;;;;;;;;;11.62;42.58;95361.38;4167313;28;5794;-74
2023/03/07 13:44:50;;;;;;;;;;;;;;;11.64;42.47;95352.16;4166365;28;5779;-74
2023/03/07 13:47:01;;;;;;;;;;;;;;;11.69;42.46;95355.94;4167269;28;5790;-73
2023/03/07 13:49:04;;;;;;;;;;;;;;;11.73;42.54;95349.13;4160865;28;5785;-74
2023/03/07 13:51:09;;;;;;;;;;;;;;;11.73;42.40;95359.72;4167386;28;5770;-73
2023/03/07 13:53:17;;;;;;;;;;;;;;;11.74;42.49;95356.84;4167671;28;5877;-73
2023/03/07 13:55:26;;;;;;;;;;;;;;;11.75;42.22;95362.94;4167137;28;5778;-74
2023/03/07 13:57:38;;;;;;;;;;;;;;;11.80;42.32;95357.78;4167356;28;5928;-74
2023/03/07 13:59:41;;;;;;;;;;;;;;;11.79;42.11;95353.50;4167389;28;5794;-73
2023/03/07 14:01:48;;;;;;;;;;;;;;;11.79;41.61;95354.34;4167466;28;5810;-72
2023/03/07 14:03:55;;;;;;;;;;;;;;;11.77;41.71;95358.22;4167249;28;5860;-72
2023/03/07 14:06:02;;;;;;;;;;;;;;;11.80;41.64;95355.13;4156734;28;5783;-73
2023/03/07 14:08:09;;;;;;;;;;;;;;;11.81;41.58;95367.34;4167152;28;5783;-72
2023/03/07 14:10:19;;;;;;;;;;;;;;;11.80;41.44;95377.13;4164125;28;6165;-72
2023/03/07 14:12:39;;;;;;;;;;;;;;;11.77;41.65;95372.25;4167327;28;5866;-73
2023/03/07 14:14:52;;;;;;;;;;;;;;;11.76;41.57;95361.91;4167095;28;5778;-73
2023/03/07 14:17:11;;;;;;;;;;;;;;;11.73;41.35;95363.19;4160014;28;5848;-72
2023/03/07 14:19:31;;;;;;;;;;;;;;;11.71;41.41;95365.25;4149560;28;5787;-72
2023/03/07 14:21:46;;;;;;;;;;;;;;;11.74;41.25;95358.69;4167250;28;5798;-72
2023/03/07 14:24:14;;;;;;;;;;;;;;;11.73;41.66;95371.13;4162897;28;5826;-73
2023/03/07 14:26:20;;;;;;;;;;;;;;;11.73;41.33;95375.59;4165711;28;5862;-73
2023/03/07 14:28:27;;;;;;;;;;;;;;;11.68;41.32;95376.31;4167599;28;5770;-73
2023/03/07 14:30:32;;;;;;;;;;;;;;;11.66;41.10;95376.56;4165487;28;5962;-72
2023/03/07 14:32:35;;;;;;;;;;;;;;;11.66;41.56;95381.03;4166763;28;5790;-73
2023/03/07 14:34:39;;;;;;;;;;;;;;;11.66;41.70;95387.16;4166771;28;5984;-72
2023/03/07 14:36:42;;;;;;;;;;;;;;;11.68;41.80;95391.41;4170134;28;5885;-73
2023/03/07 14:38:49;;;;;;;;;;;;;;;11.69;41.44;95395.66;4169472;28;5884;-74
2023/03/07 14:41:12;;;;;;;;;;;;;;;11.66;41.89;95399.56;4154219;28;5827;-73
2023/03/07 14:43:28;;;;;;;;;;;;;;;11.67;41.91;95393.25;4164114;28;5786;-73
2023/03/07 14:45:39;;;;;;;;;;;;;;;11.71;41.91;95398.88;4169084;28;6507;-72
2023/03/07 14:48:08;;;;;;;;;;;;;;;11.73;41.89;95402.88;4170285;28;5876;-74
2023/03/07 14:50:16;;;;;;;;;;;;;;;11.72;41.92;95409.22;4163500;28;6565;-73
2023/03/07 14:52:21;;;;;;;;;;;;;;;11.74;41.87;95414.28;4168297;28;5774;-73
2023/03/07 14:54:37;;;;;;;;;;;;;;;11.71;41.79;95412.09;4169263;28;5865;-73
2023/03/07 14:56:39;;;;;;;;;;;;;;;11.71;42.24;95431.44;4170696;28;6660;-73
2023/03/07 14:58:50;;;;;;;;;;;;;;;11.71;42.19;95428.78;4157450;28;6007;-73
2023/03/07 15:01:02;;;;;;;;;;;;;;;11.68;42.22;95434.56;4153967;28;5957;-74
2023/03/07 15:03:07;;;;;;;;;;;;;;;11.65;42.30;95438.47;4154171;28;5851;-74
2023/03/07 15:05:15;;;;;;;;;;;;;;;11.63;42.45;95451.13;4164496;28;5806;-73
2023/03/07 15:07:22;;;;;;;;;;;;;;;11.60;42.64;95446.31;4170069;28;5779;-74
2023/03/07 15:09:25;;;;;;;;;;;;;;;11.60;42.66;95441.00;4170546;28;5770;-74
2023/03/07 15:11:34;;;;;;;;;;;;;;;11.59;42.56;95447.34;4170180;28;5775;-73
2023/03/07 15:13:44;;;;;;;;;;;;;;;11.58;42.61;95458.97;4169978;28;5794;-73
2023/03/07 15:15:55;;;;;;;;;;;;;;;11.56;42.97;95447.81;4170348;28;6465;-74
2023/03/07 15:18:05;;;;;;;;;;;;;;;11.55;43.11;95459.44;4170319;28;5783;-73
2023/03/07 15:20:16;;;;;;;;;;;;;;;11.54;43.16;95465.75;4170293;28;5775;-73
2023/03/07 15:22:25;;;;;;;;;;;;;;;11.50;43.20;95461.97;4169821;28;5786;-73
2023/03/07 15:24:32;;;;;;;;;;;;;;;11.46;43.05;95466.13;4152418;28;5901;-73
2023/03/07 15:26:35;;;;;;;;;;;;;;;11.45;43.10;95471.63;4170351;28;6461;-73
2023/03/07 15:28:42;;;;;;;;;;;;;;;11.43;43.26;95479.78;4169522;28;5755;-73
2023/03/07 15:30:50;;;;;;;;;;;;;;;11.43;43.15;95477.13;4170003;28;5775;-73
2023/03/07 15:33:14;;;;;;;;;;;;;;;11.38;43.37;95487.63;4169945;28;6469;-73
2023/03/07 15:35:18;;;;;;;;;;;;;;;11.38;43.66;95493.72;4169822;28;6464;-73
2023/03/07 15:37:23;;;;;;;;;;;;;;;11.37;43.48;95517.75;4169722;28;5786;-73
2023/03/07 15:39:33;;;;;;;;;;;;;;;11.32;43.69;95526.38;4169742;28;5780;-72
2023/03/07 15:41:37;;;;;;;;;;;;;;;11.29;43.68;95549.84;4170087;28;5774;-73
2023/03/07 15:43:40;;;;;;;;;;;;;;;11.22;43.59;95544.66;4169609;28;5778;-73
2023/03/07 15:45:45;;;;;;;;;;;;;;;11.16;43.59;95564.06;4166407;28;5934;-73
2023/03/07 15:47:49;;;;;;;;;;;;;;;11.11;43.84;95571.09;4162216;28;5952;-72
2023/03/07 15:49:56;;;;;;;;;;;;;;;11.07;43.70;95568.06;4167835;28;5774;-74
2023/03/07 15:52:00;;;;;;;;;;;;;;;11.04;44.19;95579.91;4168054;28;6582;-73
2023/03/07 15:54:14;;;;;;;;;;;;;;;10.98;44.50;95580.81;4167831;28;5893;-73
2023/03/07 15:56:25;;;;;;;;;;;;;;;10.86;44.70;95581.78;4167432;28;5808;-73
2023/03/07 15:58:29;;;;;;;;;;;;;;;10.78;44.68;95580.28;4168180;28;5881;-72
2023/03/07 16:00:34;;;;;;;;;;;;;;;10.74;45.03;95584.38;4166856;28;5864;-73
2023/03/07 16:02:41;;;;;;;;;;;;;;;10.65;45.27;95581.25;4167676;28;5865;-73
2023/03/07 16:04:45;;;;;;;;;;;;;;;10.62;45.48;95575.59;4167674;28;5881;-72
2023/03/07 16:06:48;;;;;;;;;;;;;;;10.57;45.71;95571.00;4167606;28;5805;-73
2023/03/07 16:08:51;;;;;;;;;;;;;;;10.53;45.55;95574.28;4167801;28;6567;-72
2023/03/07 16:10:58;;;;;;;;;;;;;;;10.52;46.10;95577.97;4159142;28;5837;-73
2023/03/07 16:13:02;;;;;;;;;;;;;;;10.52;46.10;95588.53;4167083;28;5892;-73
2023/03/07 16:15:06;;;;;;;;;;;;;;;10.47;46.18;95594.50;4167392;28;5714;-68
2023/03/07 16:17:17;;;;;;;;;;;;;;;10.41;46.27;95601.44;4165189;28;7335;-72
2023/03/07 16:19:20;;;;;;;;;;;;;;;10.38;46.38;95616.94;4166689;28;5795;-72
2023/03/07 16:21:26;;;;;;;;;;;;;;;10.36;46.43;95614.53;4167094;28;5117;-72
2023/03/07 16:23:30;;;;;;;;;;;;;;;10.33;46.68;95625.53;4148671;28;5688;-72
2023/03/07 16:25:34;;;;;;;;;;;;;;;10.33;46.64;95630.03;4151013;28;5751;-72
2023/03/07 16:27:38;;;;;;;;;;;;;;;10.28;46.73;95633.31;4150955;28;5758;-72
2023/03/07 16:29:42;;;;;;;;;;;;;;;10.28;47.00;95630.66;4150912;28;5758;-72
2023/03/07 16:31:45;;;;;;;;;;;;;;;10.22;47.14;95634.19;4150745;28;5940;-72
2023/03/07 16:33:49;;;;;;;;;;;;;;;10.16;47.43;95646.38;4151250;28;5910;-73
2023/03/07 16:35:52;;;;;;;;;;;;;;;10.12;47.36;95649.69;4150582;28;5760;-72
2023/03/07 16:37:56;;;;;;;;;;;;;;;10.09;47.63;95655.41;4150871;28;5755;-72
2023/03/07 16:39:59;;;;;;;;;;;;;;;10.06;47.95;95666.41;4150679;28;5965;-72
2023/03/07 16:42:02;;;;;;;;;;;;;;;10.00;48.22;95667.28;4150821;28;5977;-72
2023/03/07 16:44:05;;;;;;;;;;;;;;;9.97;48.40;95670.34;4149343;28;5756;-71
2023/03/07 16:46:12;;;;;;;;;;;;;;;9.96;48.57;95666.88;4147719;28;5905;-71
2023/03/07 16:48:17;;;;;;;;;;;;;;;9.97;48.43;95667.72;4147929;28;5743;-74
2023/03/07 16:50:22;;;;;;;;;;;;;;;10.03;48.33;95672.13;4151799;28;5747;-74
2023/03/07 16:52:25;;;;;;;;;;;;;;;10.05;48.25;95672.69;4151812;28;5858;-76
2023/03/07 16:54:29;;;;;;;;;;;;;;;10.07;48.54;95670.66;4150356;28;5945;-74
2023/03/07 16:56:38;;;;;;;;;;;;;;;10.07;48.89;95683.84;4150118;28;5747;-75
2023/03/07 16:58:41;;;;;;;;;;;;;;;10.07;48.73;95683.84;4151227;28;5763;-74
2023/03/07 17:00:46;;;;;;;;;;;;;;;10.07;48.83;95670.66;4151134;28;5866;-76
2023/03/07 17:02:51;;;;;;;;;;;;;;;10.00;49.06;95668.09;4150537;28;5854;-75
2023/03/07 17:04:55;;;;;;;;;;;;;;;9.92;48.96;95669.16;4150905;28;5857;-75
2023/03/07 17:06:58;;;;;;;;;;;;;;;9.88;49.49;95672.47;4150733;28;5814;-75
2023/03/07 17:09:08;;;;;;;;;;;;;;;9.91;49.32;95682.56;4150246;28;5870;-75
2023/03/07 17:11:19;;;;;;;;;;;;;;;9.93;49.58;95693.72;4150272;28;5759;-75
2023/03/07 17:13:22;;;;;;;;;;;;;;;9.92;49.68;95690.28;4149470;28;5780;-75
2023/03/07 17:15:29;;;;;;;;;;;;;;;9.84;49.69;95679.97;4149972;28;6020;-75
2023/03/07 17:17:36;;;;;;;;;;;;;;;9.84;49.87;95692.38;4151042;28;6676;-76
2023/03/07 17:19:39;;;;;;;;;;;;;;;9.79;50.25;95693.03;4151335;28;5878;-76
2023/03/07 17:21:42;;;;;;;;;;;;;;;9.76;50.15;95704.03;4150532;28;5849;-75
2023/03/07 17:23:45;;;;;;;;;;;;;;;9.75;50.25;95704.25;4163020;28;5873;-76
2023/03/07 17:25:48;;;;;;;;;;;;;;;9.70;50.28;95699.59;4163036;28;5978;-76
2023/03/07 17:27:55;;;;;;;;;;;;;;;9.68;50.33;95706.91;4166170;28;5908;-76
2023/03/07 17:29:58;;;;;;;;;;;;;;;9.72;50.68;95691.44;4155320;28;5906;-76
2023/03/07 17:32:01;;;;;;;;;;;;;;;9.71;50.27;95695.91;4160993;28;5874;-76
2023/03/07 17:34:04;;;;;;;;;;;;;;;9.67;50.69;95689.47;4161829;28;6120;-76
2023/03/07 17:36:09;;;;;;;;;;;;;;;9.70;50.74;95696.13;4162905;28;5794;-76
2023/03/07 17:38:12;;;;;;;;;;;;;;;9.72;50.78;95697.53;4165506;28;5948;-76
2023/03/07 17:40:15;;;;;;;;;;;;;;;9.69;50.72;95692.69;4167848;28;5227;-77
2023/03/07 17:42:18;;;;;;;;;;;;;;;9.69;50.96;95716.44;4162036;28;5771;-75